Aviation Digital Data Service (ADDS)

Output produced by METARs form (0904 UTC 26 January 2020)
found at http://www.aviationweather.gov/metar/data/
 
Forecast for: GUCY (CONAKRY/GBESSIA , GN)
Text: TAF GUCY 252300Z 2600/2706 26006KT 5000 HZ FEW015
Forecast period: 0000 UTC 26 January 2020 to 0600 UTC 27 January 2020
Forecast type: FROM: standard forecast or significant change
Winds: from the W (260 degrees) at 7 MPH (6 knots; 3.1 m/s)
Visibility: 3 miles (5 km)
Ceiling: at least 12,000 feet AGL
Clouds: few clouds at 1500 feet AGL
Weather: HZ  (haze)
Text: TEMPO 2602/2608 VRB02KT 4000 BR NSC
Forecast period: 0200 to 0800 UTC 26 January 2020
Forecast type: TEMPORARY: The following changes expected for less than half the time period
Winds: variable direction winds at 2 MPH (2 knots; 1.0 m/s)
Visibility: 2.49 miles (4.01 km)
Ceiling: unknown
Clouds: missing
Weather: BR  (mist)
Text: TEMPO 2615/2620 4000 HZ
Forecast period: 1500 to 2000 UTC 26 January 2020
Forecast type: TEMPORARY: The following changes expected for less than half the time period
Visibility: 2.49 miles (4.01 km)
Ceiling: unknown
Clouds: missing
Weather: HZ  (haze)